Reynolds, North Dakota
Current Conditions -  °F | °C
As of 10:24 PM on Monday 22 Dec 2014 (Local Time) from KGFK Reporting Station
Drizzle Drizzle  
Wind Chill: -1°   Ceiling: 400
Heat Index:   Visibility: 1.2mi
Dew Point:   Wind: 7mph
Humidity: 93%   Direction: 40°NE
Pressure: 29.72"   Gusts: NA
Location:  47.67°N, 97.11°W
Report Text: KGFK 230424Z 04006KT 1 1/4SM -DZ BR OVC004 02/01 A2972 RMK AO2 SFC VIS 3 CIG 002V006 P0000
Loading
Personal Weather Stations






























Interactive Weather Map New forecast layout! Learn more

10-Day Weather Forecast

Advertisements
Track Severe Weather on mobile